Skip Navigation LinksHome page > Weather > Current weather Skip Navigation Links

Current Weather

Greater Rockford, Rockford, Ill.

For information only: do not use for flight planning or navigation.
Latest weather
Observation time Saturday, October 19, 2019 4:54 AM CDT
Local time Saturday, October 19, 2019 5:15 AM CDT
Flight conditions Visual Meteorological Conditions
Winds
Wind direction South-Southeast (160°)
Wind speed 8 mph
Visibility 10 mi.
Sky condition
Ceiling 15,000 ft. broken clouds
Cloud layer broken clouds 15,000 ft.
Cloud layer overcast 18,000 ft.
Temperature 48°F
Dewpoint 41°F
Altimeter 29.85 in.Hg
Derived measurements
Relative humidity 77%
Wind chill 44°F
Density altitude 221 ft.
Sea-level pressure 29.85 in.Hg
Remarks
Automated weather observing station with precipitation discriminator.
METAR KRFD 190954Z 16007KT 10SM BKN150 OVC180 09/05 A2985 RMK AO2 SLP109 T00890050

Settings

Location code

InnerDrive.Weather 4.0.6770.0 Release CLR 4.0.30319.42000
Copyright ©2018 Inner Drive Technology. All rights reserved. Portions Copyright ©1986-2018 David Braverman.

Find weather

Site navigation


Skip Navigation Links

Place info

Page info

PayPal - The safer, easier way to pay online!

Return home.

Copyright ©2019 Inner Drive Technology. Purveyors of fine, hand-crafted computer software. Page printed 2019-10-19T10:15:55 UTC.